Terminal Aerodrome Forecast
Issued by NWS

Home | Current Version | Previous Version | Text Only | Print | Product List | Glossary On
Versions: 1 2 3 4 5 6 7 8 9 10 11 12 13 14 15 16 17 18 19 20 21 22 23 24
000
FTUS45 KLKN 152320
TAFWMC
TAF
KWMC 152320Z 1600/1624 VRB05KT P6SM OVC200
     FM160600 21006KT P6SM VCSH FEW015 BKN025
     FM160800 33008KT 3SM -SHSN BR FEW015 OVC025
     FM161500 33015G25KT P6SM SCT025 BKN040=

USA.gov is the U.S. government's official web portal to all federal, state and local government web resources and services.